Bookmark and Share
Track history (hours):
 

Ascanius

Last reported at 2014-Apr-17 04:31 UTC. Time now 2014-Apr-19 06:53 UTC.
Position N 38°05' E 122°58'.

Length 225 m; draft 8.4 m.

Type: Cargo ship. MMSI: 538002012.

NotesDate/timePositionNaut miles runAvg speedWind from/ knotsBaromVisibWave heightAir tempDewpointWater temp
2014-Apr-17 04:31N 38°05' E 122°58'7912.6
2014-Apr-16 22:14N 38°24' E 121°20'171 7.9
2014-Apr-16 00:33N 38°59' E 117°45'0 0.0
2014-Apr-15 23:33N 38°59' E 117°45'0 0.0
2014-Apr-15 22:33N 38°59' E 117°45'0 0.0
2014-Apr-15 21:33N 38°59' E 117°45'0 0.0
2014-Apr-15 20:33N 38°59' E 117°45'0 0.0
2014-Apr-15 19:33N 38°59' E 117°45'0 0.0
2014-Apr-15 18:33N 38°59' E 117°45'0 0.0
2014-Apr-15 17:33N 38°59' E 117°45'0 0.0
2014-Apr-15 16:33N 38°59' E 117°45'0 0.0
2014-Apr-15 15:33N 38°59' E 117°45'0 0.0
2014-Apr-15 14:33N 38°59' E 117°45'0 0.0
2014-Apr-15 12:34N 38°59' E 117°45'0 0.0
2014-Apr-15 11:34N 38°59' E 117°45'0 0.0
2014-Apr-15 10:34N 38°59' E 117°45'0 0.0
2014-Apr-15 09:34N 38°59' E 117°45'0 0.0
2014-Apr-15 08:34N 38°59' E 117°45'0 0.0
2014-Apr-15 07:34N 38°59' E 117°45'0 0.0
2014-Apr-15 06:34N 38°59' E 117°45'0 0.0
2014-Apr-15 05:34N 38°59' E 117°45'0 0.0
2014-Apr-15 03:34N 38°59' E 117°45'0 0.0
2014-Apr-15 02:33N 38°59' E 117°45'0 0.0
2014-Apr-15 01:34N 38°59' E 117°45'0 0.0
2014-Apr-15 00:34N 38°59' E 117°45'0 0.0
2014-Apr-14 23:34N 38°59' E 117°45'0 0.0
2014-Apr-14 22:33N 38°59' E 117°45'0 0.0
2014-Apr-14 21:33N 38°59' E 117°45'0 0.0
2014-Apr-14 20:34N 38°59' E 117°45'0 0.0
2014-Apr-14 19:34N 38°59' E 117°45'0 0.0
2014-Apr-14 18:34N 38°59' E 117°45'0 0.0
2014-Apr-14 17:34N 38°59' E 117°45'0 0.0
2014-Apr-14 16:34N 38°59' E 117°45'0 0.0
2014-Apr-14 15:34N 38°59' E 117°45'0 0.0
2014-Apr-14 14:34N 38°59' E 117°45'0 0.0
2014-Apr-14 13:33N 38°59' E 117°45'0 0.0
2014-Apr-14 11:33N 38°59' E 117°45'0 0.0
2014-Apr-14 10:33N 38°59' E 117°45'0 0.0
2014-Apr-14 09:34N 38°59' E 117°45'0 0.0
2014-Apr-14 08:32N 38°59' E 117°45'0 0.0
2014-Apr-14 07:32N 38°59' E 117°45'0 0.0
2014-Apr-14 06:31N 38°59' E 117°45'0 0.0
2014-Apr-14 05:33N 38°59' E 117°45'0 0.0
2014-Apr-13 22:31N 38°59' E 117°45'0 0.0
2014-Apr-13 21:33N 38°59' E 117°45'0 0.0
2014-Apr-13 20:33N 38°59' E 117°45'0 0.0
2014-Apr-13 19:33N 38°59' E 117°45'0 0.0
2014-Apr-13 18:33N 38°59' E 117°45'9 8.7
2014-Apr-13 17:33N 38°57' E 117°56'5 3.9
2014-Apr-13 16:20N 38°58' E 118°02'0 0.0
2014-Apr-13 15:32N 38°58' E 118°02'0 0.0
2014-Apr-13 14:33N 38°58' E 118°02'0 0.0
2014-Apr-13 13:32N 38°58' E 118°02'0 0.2
2014-Apr-13 12:32N 38°58' E 118°02'0 0.1
2014-Apr-13 11:32N 38°58' E 118°02'0 0.0
2014-Apr-13 09:14N 38°58' E 118°02'0 0.0
2014-Apr-13 08:26N 38°58' E 118°02'0 0.1
2014-Apr-13 06:32N 38°58' E 118°02'0 0.0
2014-Apr-13 05:14N 38°58' E 118°02'0 0.0
2014-Apr-13 01:14N 38°58' E 118°02'0 0.1
2014-Apr-12 23:08N 38°57' E 118°02'0 0.0
2014-Apr-12 19:08N 38°57' E 118°02'0 0.2
2014-Apr-12 18:08N 38°58' E 118°02'0 0.0
2014-Apr-12 17:26N 38°58' E 118°02'0 0.0
2014-Apr-12 16:13N 38°58' E 118°02'0 0.0
2014-Apr-12 15:33N 38°58' E 118°02'0 0.0
2014-Apr-12 14:13N 38°58' E 118°02'0 0.0
2014-Apr-12 13:32N 38°58' E 118°02'0 0.1
2014-Apr-12 12:33N 38°57' E 118°02'0 0.2
2014-Apr-12 11:27N 38°57' E 118°02'0 0.5
2014-Apr-12 10:33N 38°57' E 118°03'10 9.3
2014-Apr-12 09:29N 38°52' E 118°14'12212.1
2014-Apr-11 23:19N 37°39' E 120°19'1 0.7
2014-Apr-11 22:09N 37°39' E 120°19'0 0.0
2014-Apr-11 21:30N 37°39' E 120°19'0 0.0
2014-Apr-11 20:30N 37°39' E 120°19'0 0.0
2014-Apr-11 19:33N 37°39' E 120°19'0 0.0
2014-Apr-11 18:30N 37°39' E 120°19'0 0.0
2014-Apr-11 17:33N 37°39' E 120°19'0 0.0
2014-Apr-11 16:03N 37°39' E 120°19'0 0.0
2014-Apr-11 15:33N 37°39' E 120°19'0 0.0
2014-Apr-11 14:33N 37°39' E 120°19'0 0.0
2014-Apr-11 13:12N 37°39' E 120°19'0 0.0
2014-Apr-11 12:27N 37°39' E 120°19'0 0.0
2014-Apr-11 11:33N 37°39' E 120°19'0 0.0
2014-Apr-11 10:30N 37°39' E 120°19'0 0.0
2014-Apr-11 09:33N 37°39' E 120°19'0 0.0
2014-Apr-11 08:21N 37°39' E 120°19'0 0.0
2014-Apr-11 07:24N 37°39' E 120°19'0 0.0
2014-Apr-11 06:09N 37°39' E 120°19'0 0.0
2014-Apr-11 05:24N 37°39' E 120°19'0 0.0
2014-Apr-11 04:33N 37°39' E 120°19'0 0.0
2014-Apr-11 02:27N 37°39' E 120°19'0 0.0
2014-Apr-11 01:27N 37°39' E 120°19'0 0.0
2014-Apr-11 00:33N 37°39' E 120°19'0 0.0
2014-Apr-10 23:31N 37°39' E 120°19'0 0.0
2014-Apr-10 22:31N 37°39' E 120°19'0 0.0
2014-Apr-10 21:33N 37°39' E 120°19'0 0.0
2014-Apr-10 20:31N 37°39' E 120°19'0 0.0
2014-Apr-10 19:32N 37°39' E 120°19'0 0.0
2014-Apr-10 18:32N 37°39' E 120°19'0 0.0
2014-Apr-10 17:33N 37°39' E 120°19'0 0.0
2014-Apr-10 16:33N 37°39' E 120°19'0 0.0
2014-Apr-10 15:32N 37°39' E 120°19'0 0.0
2014-Apr-10 14:33N 37°39' E 120°19'0 0.0
2014-Apr-10 13:32N 37°39' E 120°19'0 0.0
2014-Apr-10 12:33N 37°39' E 120°19'0 0.0
2014-Apr-10 11:33N 37°39' E 120°19'0 0.0
2014-Apr-10 10:32N 37°39' E 120°19'0 0.0
2014-Apr-10 09:33N 37°39' E 120°19'0 0.0
2014-Apr-10 08:33N 37°39' E 120°19'0 0.0
2014-Apr-10 07:33N 37°39' E 120°19'0 0.0
2014-Apr-10 06:32N 37°39' E 120°19'0 0.0
2014-Apr-10 05:32N 37°39' E 120°19'0 0.0
2014-Apr-10 04:32N 37°39' E 120°19'0 0.0
2014-Apr-10 03:32N 37°39' E 120°19'0 0.0
2014-Apr-10 02:33N 37°39' E 120°19'0 0.0
2014-Apr-10 01:33N 37°39' E 120°19'0 0.0
2014-Apr-10 00:33N 37°39' E 120°19'0 0.0
2014-Apr-09 23:32N 37°39' E 120°19'0 0.0
2014-Apr-09 22:33N 37°39' E 120°19'0 0.0
2014-Apr-09 21:33N 37°39' E 120°19'0 0.0
2014-Apr-09 20:29N 37°39' E 120°19'0 0.0
2014-Apr-09 19:32N 37°39' E 120°19'0 0.0
2014-Apr-09 18:32N 37°39' E 120°19'0 0.0
2014-Apr-09 17:31N 37°39' E 120°19'0 0.0
2014-Apr-09 16:33N 37°39' E 120°19'0 0.0
2014-Apr-09 15:33N 37°39' E 120°19'0 0.0
2014-Apr-09 14:33N 37°39' E 120°19'0 0.0
2014-Apr-09 13:33N 37°39' E 120°19'0 0.0
2014-Apr-09 12:33N 37°39' E 120°19'0 0.0
2014-Apr-09 11:33N 37°39' E 120°19'0 0.0
2014-Apr-09 10:33N 37°39' E 120°19'0 0.0
2014-Apr-09 09:32N 37°39' E 120°19'0 0.0
2014-Apr-09 08:32N 37°39' E 120°19'0 0.0
2014-Apr-09 07:32N 37°39' E 120°19'0 0.0
2014-Apr-09 06:33N 37°39' E 120°19'0 0.0
2014-Apr-09 05:32N 37°39' E 120°19'0 0.0
2014-Apr-09 04:30N 37°39' E 120°19'0 0.0
2014-Apr-09 03:33N 37°39' E 120°19'66 5.0
2014-Apr-08 14:27N 38°31' E 121°11'1011.5
2014-Apr-08 13:33N 38°27' E 121°23'1312.8
2014-Apr-08 12:33N 38°20' E 121°37'1313.3
2014-Apr-08 11:33N 38°15' E 121°53'1413.2
2014-Apr-08 10:32N 38°08' E 122°08'1313.0
2014-Apr-08 09:30N 38°02' E 122°23'1212.9
2014-Apr-08 08:33N 37°59' E 122°38'1312.8
2014-Apr-08 07:31N 37°56' E 122°54'157 8.6
2014-Apr-07 13:20N 35°56' E 120°48'1012.7
2014-Apr-07 12:32N 35°58' E 120°36'1212.5
2014-Apr-07 11:33N 36°01' E 120°21'5 3.9
2014-Apr-07 10:19N 36°06' E 120°19'  

Dump ship's entire track history

sailing weather and tide predictions

Ascanius — V7FS9 — position and weather